Time;durP1;ratioP1;P1;durP2;ratioP2;P2;SDS_P1;SDS_P2;PMS_P1;PMS_P2;Temp;Humidity;BMP_temperature;BMP_pressure;BME280_temperature;BME280_humidity;BME280_pressure;Samples;Min_cycle;Max_cycle;Signal;HPM_P1;HPM_P2
2022/06/07 00:09:24;;;;;;;8.65;3.80;;;13.90;99.90;;;;;;21054846;28;20031;-61
2022/06/07 00:19:26;;;;;;;7.35;3.20;;;14.40;99.90;;;;;;21037861;28;20525;-60
2022/06/07 00:29:30;;;;;;;6.70;3.53;;;14.70;99.90;;;;;;21053470;28;20401;-60
2022/06/07 00:39:32;;;;;;;6.03;2.53;;;14.70;99.90;;;;;;21051506;28;20454;-61
2022/06/07 00:49:53;;;;;;;5.18;3.08;;;14.70;99.90;;;;;;21051732;28;20066;-61
2022/06/07 00:59:57;;;;;;;5.93;3.17;;;14.70;99.90;;;;;;21068397;28;20055;-51
2022/06/07 01:20:25;;;;;;;8.48;2.60;;;15.00;99.90;;;;;;21050178;28;20489;-61
2022/06/07 01:30:29;;;;;;;3.45;2.28;;;15.10;99.90;;;;;;21066775;28;20196;-60
2022/06/07 01:51:03;;;;;;;3.30;2.17;;;14.90;99.90;;;;;;21049306;28;20916;-59
2022/06/07 02:01:09;;;;;;;3.72;1.88;;;14.90;99.90;;;;;;21048748;28;20081;-60
2022/06/07 02:11:15;;;;;;;3.72;2.28;;;14.80;99.90;;;;;;21064312;28;20085;-59
2022/06/07 02:21:24;;;;;;;5.87;3.67;;;14.50;99.90;;;;;;21047788;28;20481;-58
2022/06/07 02:31:30;;;;;;;7.80;4.55;;;14.30;99.90;;;;;;21062867;28;20134;-56
2022/06/07 02:41:35;;;;;;;6.18;3.40;;;13.90;99.90;;;;;;21060763;28;20085;-53
2022/06/07 02:51:40;;;;;;;6.00;3.33;;;13.50;99.90;;;;;;21061394;28;20140;-49
2022/06/07 03:01:50;;;;;;;6.05;2.80;;;13.10;99.90;;;;;;21061609;28;20085;-54
2022/06/07 03:11:53;;;;;;;5.63;3.00;;;12.70;99.90;;;;;;21059321;28;20040;-48
2022/06/07 03:21:56;;;;;;;5.65;3.40;;;12.50;99.90;;;;;;21057503;28;20111;-48
2022/06/07 03:31:59;;;;;;;7.47;3.47;;;12.40;99.90;;;;;;21056893;28;20090;-56
2022/06/07 03:42:03;;;;;;;5.35;3.30;;;12.30;99.90;;;;;;21055879;28;20091;-48
2022/06/07 03:52:07;;;;;;;7.20;4.10;;;12.20;99.90;;;;;;21056448;28;20048;-58
2022/06/07 04:02:16;;;;;;;6.35;4.05;;;12.30;99.90;;;;;;21055591;28;20074;-56
2022/06/07 04:12:19;;;;;;;8.05;4.95;;;12.40;99.90;;;;;;21054405;28;20039;-50
2022/06/07 04:22:24;;;;;;;8.05;5.13;;;12.40;99.90;;;;;;21055145;28;20389;-51
2022/06/07 04:32:46;;;;;;;17.63;7.35;;;12.50;99.90;;;;;;21052956;28;20108;-51
2022/06/07 04:42:49;;;;;;;;;;;12.50;99.90;;;;;;21052220;28;20101;-51
2022/06/07 04:52:56;;;;;;;11.60;7.05;;;12.50;99.90;;;;;;21053236;28;19945;-52
2022/06/07 05:03:01;;;;;;;17.13;8.43;;;12.50;99.90;;;;;;21050896;28;20032;-46
2022/06/07 05:13:07;;;;;;;8.82;6.28;;;12.70;99.90;;;;;;21052277;28;20089;-57
2022/06/07 05:23:14;;;;;;;7.88;5.90;;;12.80;99.90;;;;;;21034120;28;20036;-56
2022/06/07 05:33:22;;;;;;;13.32;8.00;;;12.80;99.90;;;;;;21049579;28;20032;-49
2022/06/07 05:43:30;;;;;;;8.05;5.65;;;12.80;99.90;;;;;;21060810;28;20101;-57
2022/06/07 05:53:36;;;;;;;6.30;4.35;;;12.90;99.90;;;;;;21065777;28;20040;-55
2022/06/07 06:03:40;;;;;;;7.50;4.75;;;12.90;99.90;;;;;;21064957;28;20040;-55
2022/06/07 06:13:45;;;;;;;7.53;3.90;;;12.80;99.90;;;;;;21064189;28;20040;-54
2022/06/07 06:23:49;;;;;;;6.85;3.70;;;12.80;99.90;;;;;;21063946;28;20048;-55
2022/06/07 06:33:54;;;;;;;8.65;3.90;;;12.70;99.90;;;;;;21062856;28;20032;-56
2022/06/07 06:44:03;;;;;;;6.57;4.05;;;12.70;99.90;;;;;;21061302;28;20489;-56
2022/06/07 06:54:13;;;;;;;8.48;5.15;;;12.70;99.90;;;;;;21061301;28;20040;-50
2022/06/07 07:04:29;;;;;;;8.68;5.20;;;12.70;99.90;;;;;;21060659;28;20039;-52
2022/06/07 07:14:34;;;;;;;8.23;4.68;;;12.90;99.90;;;;;;21059435;28;20089;-53
2022/06/07 07:24:37;;;;;;;5.28;3.92;;;13.30;99.90;;;;;;21058983;28;20036;-46
2022/06/07 07:34:42;;;;;;;4.07;3.40;;;13.90;99.90;;;;;;21057817;28;20040;-53
2022/06/07 07:44:46;;;;;;;5.60;3.65;;;14.20;99.90;;;;;;21004537;28;20048;-57
2022/06/07 07:54:49;;;;;;;5.10;3.42;;;14.30;99.90;;;;;;20972874;28;20037;-55
2022/06/07 08:04:53;;;;;;;4.20;3.03;;;14.50;99.90;;;;;;20955553;28;20033;-53
2022/06/07 08:14:56;;;;;;;5.00;3.17;;;14.40;99.90;;;;;;20954616;28;20032;-48
2022/06/07 08:24:59;;;;;;;4.38;3.40;;;14.50;99.90;;;;;;20970157;28;20447;-57
2022/06/07 08:45:26;;;;;;;3.83;2.30;;;15.40;99.90;;;;;;20971756;28;20074;-59
2022/06/07 08:55:42;;;;;;;3.40;2.35;;;16.70;99.90;;;;;;20968189;28;20241;-52
2022/06/07 09:05:52;;;;;;;2.33;1.90;;;17.70;99.90;;;;;;20967768;28;20106;-61
2022/06/07 09:15:56;;;;;;;6.17;1.70;;;18.80;99.90;;;;;;20950567;28;20036;-61
2022/06/07 09:26:24;;;;;;;1.98;1.25;;;18.70;99.90;;;;;;20966509;28;20405;-55
2022/06/07 09:36:31;;;;;;;1.03;0.90;;;18.80;99.90;;;;;;20966377;28;20543;-62
2022/06/07 09:46:35;;;;;;;1.58;0.90;;;19.90;99.90;;;;;;20960407;28;20082;-61
2022/06/07 09:57:04;;;;;;;1.67;1.08;;;19.50;99.90;;;;;;20965485;28;20067;-61
2022/06/07 10:07:22;;;;;;;0.98;0.68;;;18.30;99.90;;;;;;20965138;28;20089;-61
2022/06/07 10:17:40;;;;;;;0.77;0.60;;;18.30;99.90;;;;;;20964789;28;20078;-62
2022/06/07 10:28:02;;;;;;;1.13;0.77;;;19.50;99.90;;;;;;20972689;28;20481;-62
2022/06/07 10:38:13;;;;;;;1.17;1.05;;;20.80;99.90;;;;;;20990042;28;20081;-60
2022/06/07 10:48:28;;;;;;;2.13;0.80;;;21.00;99.90;;;;;;21061792;28;20040;-58
2022/06/07 10:58:46;;;;;;;10.57;2.97;;;20.00;99.90;;;;;;21061242;28;20040;-46
2022/06/07 11:09:33;;;;;;;2.65;1.25;;;18.40;99.90;;;;;;21060238;28;20346;-53
2022/06/07 11:19:36;;;;;;;2.55;1.58;;;14.70;99.90;;;;;;20884375;28;20406;-59
2022/06/07 11:29:40;;;;;;;1.73;1.35;;;14.00;99.90;;;;;;20900022;28;20045;-60
2022/06/07 11:39:56;;;;;;;3.10;1.08;;;16.10;99.90;;;;;;20859494;28;20049;-60
2022/06/07 11:50:01;;;;;;;1.63;1.20;;;17.80;99.90;;;;;;20846721;28;20056;-60
2022/06/07 12:00:19;;;;;;;1.10;0.93;;;18.40;99.90;;;;;;20957609;28;20538;-60
2022/06/07 12:10:33;;;;;;;1.20;1.10;;;18.50;99.90;;;;;;20971443;28;20036;-60
2022/06/07 12:20:41;;;;;;;2.10;1.35;;;17.90;99.90;;;;;;20988253;28;20361;-60
2022/06/07 12:30:44;;;;;;;14.00;1.67;;;16.80;99.90;;;;;;20970193;28;20098;-60
2022/06/07 12:41:13;;;;;;;2.45;1.77;;;15.90;99.90;;;;;;20972375;28;20413;-60
2022/06/07 12:51:22;;;;;;;1.63;1.07;;;15.70;99.90;;;;;;20966261;28;20078;-48
2022/06/07 13:01:40;;;;;;;1.88;1.08;;;16.30;99.90;;;;;;20968201;28;20098;-60
2022/06/07 13:11:43;;;;;;;1.25;0.90;;;16.60;99.90;;;;;;20968882;28;20101;-60
2022/06/07 13:21:56;;;;;;;3.50;1.08;;;16.70;99.90;;;;;;20983464;28;20036;-61
2022/06/07 13:32:20;;;;;;;1.95;1.50;;;17.30;99.90;;;;;;20968303;28;20066;-60
2022/06/07 13:42:33;;;;;;;1.05;0.90;;;16.80;99.90;;;;;;20964975;28;20508;-60
2022/06/07 14:03:36;;;;;;;0.22;0.20;;;15.30;99.90;;;;;;20719525;28;20402;-54
2022/06/07 14:13:39;;;;;;;0.00;0.00;;;15.20;99.90;;;;;;20725551;28;20050;-54
2022/06/07 14:23:42;;;;;;;0.20;0.20;;;15.80;99.90;;;;;;20724606;28;20042;-61
2022/06/07 14:33:46;;;;;;;2.00;0.20;;;15.10;99.90;;;;;;20942211;28;20037;-61
2022/06/07 14:43:48;;;;;;;1.48;0.10;;;14.80;99.90;;;;;;20978319;28;20093;-50
2022/06/07 14:53:53;;;;;;;0.00;0.00;;;15.50;99.90;;;;;;20977931;28;20094;-55
2022/06/07 15:03:55;;;;;;;2.15;0.10;;;14.60;99.90;;;;;;20977089;28;20028;-60
2022/06/07 15:13:59;;;;;;;0.32;0.10;;;14.00;99.90;;;;;;20975933;28;20028;-51
2022/06/07 15:24:03;;;;;;;0.30;0.00;;;14.10;99.90;;;;;;20975606;28;20040;-60
2022/06/07 15:34:11;;;;;;;0.00;0.00;;;14.10;99.90;;;;;;20974598;28;20205;-51
2022/06/07 15:44:13;;;;;;;0.20;0.00;;;15.50;99.90;;;;;;21033288;28;20052;-61
2022/06/07 15:54:16;;;;;;;0.00;0.00;;;17.30;99.90;;;;;;21052760;28;20062;-57
2022/06/07 16:04:18;;;;;;;1.17;0.00;;;17.20;99.90;;;;;;21052009;28;20036;-55
2022/06/07 16:14:21;;;;;;;1.65;0.00;;;15.40;99.90;;;;;;21051438;28;20557;-53
2022/06/07 16:24:23;;;;;;;3.28;0.10;;;15.00;99.90;;;;;;21049809;28;20473;-55
2022/06/07 16:34:26;;;;;;;0.08;0.00;;;14.90;99.90;;;;;;21050094;28;20470;-51
2022/06/07 16:44:30;;;;;;;0.10;0.00;;;14.90;99.90;;;;;;21015160;28;1357790;-50
2022/06/07 16:54:32;;;;;;;1.95;0.00;;;14.30;99.90;;;;;;21068785;28;20039;-59
2022/06/07 17:04:35;;;;;;;0.10;0.00;;;13.50;99.90;;;;;;21068409;28;20040;-48
2022/06/07 17:14:37;;;;;;;1.33;0.00;;;13.30;99.90;;;;;;21068068;28;20044;-49
2022/06/07 17:24:40;;;;;;;0.10;0.00;;;13.30;99.90;;;;;;21067048;28;20040;-49
2022/06/07 17:34:43;;;;;;;0.35;0.10;;;13.00;99.90;;;;;;21065534;28;20538;-57
2022/06/07 17:44:46;;;;;;;0.90;0.00;;;12.70;99.90;;;;;;21065204;28;20428;-55
2022/06/07 17:54:52;;;;;;;0.15;0.00;;;12.50;99.90;;;;;;21049028;28;20036;-58
2022/06/07 18:04:54;;;;;;;0.43;0.00;;;12.50;99.90;;;;;;21048636;28;20027;-50
2022/06/07 18:14:57;;;;;;;1.55;0.38;;;12.30;99.90;;;;;;21048312;28;20072;-52
2022/06/07 18:25:00;;;;;;;0.45;0.05;;;12.10;99.90;;;;;;21047900;28;20028;-55
2022/06/07 18:35:07;;;;;;;0.20;0.00;;;12.00;99.90;;;;;;21047356;28;20032;-58
2022/06/07 18:45:13;;;;;;;0.10;0.00;;;12.20;99.90;;;;;;21067073;28;20036;-58
2022/06/07 18:55:23;;;;;;;0.95;0.00;;;12.30;99.90;;;;;;21062685;28;20094;-57
2022/06/07 19:05:33;;;;;;;0.00;0.00;;;12.50;99.90;;;;;;21061165;28;20425;-58
2022/06/07 19:15:38;;;;;;;0.68;0.00;;;12.40;99.90;;;;;;21060472;28;20032;-58
2022/06/07 19:25:46;;;;;;;0.32;0.00;;;12.10;99.90;;;;;;21076286;28;20063;-58
2022/06/07 19:35:51;;;;;;;0.35;0.08;;;12.00;99.90;;;;;;21058693;28;20036;-58
2022/06/07 19:45:53;;;;;;;1.55;0.00;;;11.80;99.90;;;;;;20979968;28;20114;-58
2022/06/07 19:55:58;;;;;;;0.60;0.00;;;11.80;99.90;;;;;;20972170;28;20033;-58
2022/06/07 20:06:00;;;;;;;1.15;0.10;;;11.90;99.90;;;;;;20972187;28;20032;-58
2022/06/07 20:16:04;;;;;;;0.17;0.00;;;11.80;99.90;;;;;;20971911;28;20040;-57
2022/06/07 20:26:07;;;;;;;0.10;0.00;;;11.50;99.90;;;;;;20970627;28;20037;-57
2022/06/07 20:36:11;;;;;;;0.40;0.00;;;11.70;99.90;;;;;;20969696;28;20032;-57
2022/06/07 20:46:14;;;;;;;0.65;0.00;;;11.50;99.90;;;;;;20968712;28;20048;-56
2022/06/07 20:56:18;;;;;;;0.22;0.05;;;11.40;99.90;;;;;;20968641;28;20040;-57
2022/06/07 21:06:22;;;;;;;0.22;0.08;;;11.50;99.90;;;;;;20967552;28;20036;-51
2022/06/07 21:16:26;;;;;;;0.20;0.00;;;11.60;99.90;;;;;;20967402;28;20476;-52
2022/06/07 21:26:29;;;;;;;0.30;0.10;;;11.60;99.90;;;;;;20966823;28;20066;-50
2022/06/07 21:36:32;;;;;;;3.92;0.17;;;11.50;99.90;;;;;;20982957;28;20424;-52
2022/06/07 21:46:35;;;;;;;0.10;0.00;;;11.70;99.90;;;;;;20949120;28;20045;-52
2022/06/07 21:56:38;;;;;;;0.40;0.10;;;11.60;99.90;;;;;;20965513;28;20074;-52
2022/06/07 22:06:40;;;;;;;0.73;0.00;;;11.60;99.90;;;;;;20965383;28;20090;-53
2022/06/07 22:16:43;;;;;;;0.75;0.00;;;11.50;99.90;;;;;;20948218;28;20440;-51
2022/06/07 22:26:45;;;;;;;0.15;0.00;;;11.40;99.90;;;;;;20977939;28;20028;-57
2022/06/07 22:36:49;;;;;;;2.17;0.13;;;11.50;99.90;;;;;;20993805;28;20028;-49
2022/06/07 22:46:54;;;;;;;0.90;0.00;;;11.80;99.90;;;;;;21043995;28;20402;-57
2022/06/07 22:56:59;;;;;;;1.27;0.08;;;11.70;99.90;;;;;;21062836;28;20058;-49
2022/06/07 23:07:04;;;;;;;1.88;0.08;;;11.60;99.90;;;;;;21061005;28;20043;-52
2022/06/07 23:17:19;;;;;;;1.15;0.00;;;11.60;99.90;;;;;;21059962;28;20040;-50
2022/06/07 23:27:23;;;;;;;0.03;0.00;;;11.50;99.90;;;;;;21059393;28;20070;-49
2022/06/07 23:37:26;;;;;;;0.40;0.10;;;11.40;99.90;;;;;;21058134;28;20566;-56
2022/06/07 23:47:51;;;;;;;3.70;0.10;;;11.10;99.90;;;;;;21058914;28;20385;-58
2022/06/07 23:57:54;;;;;;;2.42;0.10;;;10.80;99.90;;;;;;21057151;28;20439;-57
